Time;durP1;ratioP1;P1;durP2;ratioP2;P2;SDS_P1;SDS_P2;PMS_P1;PMS_P2;Temp;Humidity;BMP_temperature;BMP_pressure;BME280_temperature;BME280_humidity;BME280_pressure;Samples;Min_cycle;Max_cycle;Signal;HPM_P1;HPM_P2
2022/09/26 00:00:43;;;;;;;2.35;1.35;;;13.80;54.90;;;;;;4978725;28;20054;-58
2022/09/26 00:03:10;;;;;;;5.80;1.38;;;13.70;55.00;;;;;;4982335;28;20490;-57
2022/09/26 00:05:39;;;;;;;3.55;1.48;;;13.70;55.10;;;;;;4980360;28;20046;-58
2022/09/26 00:08:07;;;;;;;2.20;1.25;;;13.70;55.20;;;;;;4981198;28;20062;-53
2022/09/26 00:10:35;;;;;;;6.55;1.70;;;13.60;55.20;;;;;;4982258;28;20057;-52
2022/09/26 00:13:02;;;;;;;4.25;1.60;;;13.60;55.30;;;;;;4983254;28;20066;-57
2022/09/26 00:15:30;;;;;;;6.95;1.60;;;13.60;55.30;;;;;;4978051;28;20445;-58
2022/09/26 00:17:58;;;;;;;3.53;1.60;;;13.60;55.30;;;;;;4982628;28;20058;-54
2022/09/26 00:20:25;;;;;;;1.98;1.35;;;13.60;55.30;;;;;;4981428;28;20054;-55
2022/09/26 00:22:52;;;;;;;3.40;0.95;;;13.60;55.30;;;;;;4981664;28;20057;-55
2022/09/26 00:25:19;;;;;;;2.53;1.42;;;13.60;55.30;;;;;;4978026;28;20529;-58
2022/09/26 00:27:46;;;;;;;7.15;1.90;;;13.50;55.40;;;;;;4981630;28;20058;-57
2022/09/26 00:30:14;;;;;;;9.30;1.73;;;13.50;55.50;;;;;;4980774;28;20057;-55
2022/09/26 00:32:42;;;;;;;4.68;1.60;;;13.50;55.60;;;;;;4982703;28;20050;-57
2022/09/26 00:35:09;;;;;;;3.55;1.40;;;13.50;55.70;;;;;;4980449;28;20058;-57
2022/09/26 00:37:37;;;;;;;2.92;1.55;;;13.50;55.80;;;;;;4982590;28;20062;-57
2022/09/26 00:40:05;;;;;;;4.68;1.77;;;13.50;55.80;;;;;;4981739;28;20057;-58
2022/09/26 00:42:32;;;;;;;5.45;1.50;;;13.50;55.80;;;;;;4980079;28;20050;-56
2022/09/26 00:44:59;;;;;;;3.90;1.20;;;13.50;55.80;;;;;;4979573;28;20058;-55
2022/09/26 00:47:38;;;;;;;3.97;1.35;;;13.50;55.90;;;;;;4979562;28;20061;-50
2022/09/26 00:50:16;;;;;;;3.90;1.25;;;13.50;56.10;;;;;;4982022;28;20418;-57
2022/09/26 00:52:48;;;;;;;5.95;1.77;;;13.50;56.10;;;;;;4981514;28;20521;-58
2022/09/26 00:55:19;;;;;;;5.90;1.50;;;13.50;56.20;;;;;;4982063;28;20862;-54
2022/09/26 00:57:50;;;;;;;3.42;1.33;;;13.50;56.30;;;;;;4987757;28;20058;-58
2022/09/26 01:00:22;;;;;;;3.65;0.90;;;13.50;56.40;;;;;;4983004;28;20058;-49
2022/09/26 01:02:51;;;;;;;2.70;1.25;;;13.50;56.40;;;;;;4987353;28;20057;-58
2022/09/26 01:05:22;;;;;;;2.92;1.27;;;13.50;56.50;;;;;;4982132;28;20062;-53
2022/09/26 01:07:50;;;;;;;2.55;1.35;;;13.50;56.60;;;;;;4984807;28;20487;-56
2022/09/26 01:10:18;;;;;;;8.30;1.38;;;13.60;56.70;;;;;;4985492;28;20536;-58
2022/09/26 01:12:45;;;;;;;3.10;1.35;;;13.60;56.70;;;;;;4985510;28;20058;-58
2022/09/26 01:15:12;;;;;;;4.03;1.58;;;13.60;56.70;;;;;;4982102;28;20054;-57
2022/09/26 01:17:42;;;;;;;2.22;1.10;;;13.60;56.60;;;;;;4986876;28;20065;-58
2022/09/26 01:20:26;;;;;;;4.22;1.25;;;13.60;56.60;;;;;;4966818;28;20414;-57
2022/09/26 01:23:27;;;;;;;4.38;1.30;;;13.60;56.50;;;;;;4982328;28;20546;-57
2022/09/26 01:26:27;;;;;;;6.25;1.70;;;13.60;56.60;;;;;;4967626;28;20050;-58
2022/09/26 01:29:32;;;;;;;2.65;1.02;;;13.60;56.60;;;;;;4984915;28;20414;-57
2022/09/26 01:35:01;;;;;;;2.45;1.00;;;13.60;56.60;;;;;;4990934;28;20438;-57
2022/09/26 01:37:35;;;;;;;1.85;1.00;;;13.60;56.60;;;;;;4980396;28;20077;-58
2022/09/26 01:40:09;;;;;;;3.00;1.00;;;13.60;56.60;;;;;;4982333;28;20502;-58
2022/09/26 01:42:46;;;;;;;3.67;1.10;;;13.60;56.60;;;;;;4985532;28;20054;-57
2022/09/26 01:45:17;;;;;;;4.32;1.27;;;13.60;56.70;;;;;;4982247;28;20054;-58
2022/09/26 01:47:53;;;;;;;2.30;1.02;;;13.60;56.70;;;;;;4984234;28;20050;-57
2022/09/26 01:50:27;;;;;;;3.13;0.95;;;13.60;56.80;;;;;;4985076;28;20057;-56
2022/09/26 01:52:59;;;;;;;2.28;1.23;;;13.70;56.90;;;;;;4985173;28;20058;-57
2022/09/26 01:55:33;;;;;;;2.70;1.40;;;13.60;56.80;;;;;;4982747;28;20050;-58
2022/09/26 01:58:08;;;;;;;2.20;1.38;;;13.70;56.90;;;;;;4986167;28;20061;-58
2022/09/26 02:00:39;;;;;;;7.65;1.55;;;13.70;56.80;;;;;;4979969;28;20054;-57
2022/09/26 02:03:13;;;;;;;2.88;1.45;;;13.70;56.80;;;;;;4985851;28;20526;-54
2022/09/26 02:05:46;;;;;;;3.03;1.20;;;13.70;56.80;;;;;;4980094;28;20062;-49
2022/09/26 02:08:18;;;;;;;3.00;1.30;;;13.70;56.80;;;;;;4981164;28;20486;-52
2022/09/26 02:10:48;;;;;;;6.60;1.58;;;13.60;56.80;;;;;;4985209;28;20054;-58
2022/09/26 02:13:19;;;;;;;5.25;1.73;;;13.60;56.60;;;;;;4985913;28;20050;-56
2022/09/26 02:15:51;;;;;;;4.50;1.48;;;13.60;56.50;;;;;;4979871;28;20050;-54
2022/09/26 02:18:23;;;;;;;2.42;1.50;;;13.60;56.50;;;;;;4983588;28;20058;-57
2022/09/26 02:20:56;;;;;;;3.38;1.70;;;13.50;56.60;;;;;;4981893;28;20050;-56
2022/09/26 02:23:24;;;;;;;5.60;1.40;;;13.50;56.80;;;;;;4984551;28;20062;-56
2022/09/26 02:25:51;;;;;;;2.55;1.50;;;13.50;56.90;;;;;;4982096;28;20058;-54
2022/09/26 02:28:18;;;;;;;4.70;1.40;;;13.40;56.90;;;;;;4983111;28;20062;-56
2022/09/26 02:30:49;;;;;;;3.83;1.60;;;13.40;57.10;;;;;;4982581;28;20050;-54
2022/09/26 02:33:16;;;;;;;5.18;1.40;;;13.40;57.30;;;;;;4986086;28;20058;-57
2022/09/26 02:35:54;;;;;;;3.88;1.70;;;13.50;57.40;;;;;;4980850;28;20502;-57
2022/09/26 02:38:22;;;;;;;2.10;1.13;;;13.50;57.50;;;;;;4982216;28;20057;-51
2022/09/26 02:40:52;;;;;;;2.47;1.40;;;13.50;57.60;;;;;;4984106;28;20054;-58
2022/09/26 02:43:53;;;;;;;2.15;1.25;;;13.50;57.70;;;;;;4985394;28;20490;-55
2022/09/26 02:46:37;;;;;;;3.40;1.40;;;13.50;57.80;;;;;;4979466;28;20073;-57
2022/09/26 02:49:16;;;;;;;3.55;1.70;;;13.50;57.70;;;;;;4982814;28;20058;-55
2022/09/26 02:52:03;;;;;;;5.32;1.52;;;13.60;57.80;;;;;;4984772;28;20388;-56
2022/09/26 02:54:38;;;;;;;2.75;1.30;;;13.60;57.80;;;;;;4985160;28;20418;-58
2022/09/26 02:57:14;;;;;;;2.33;1.10;;;13.60;57.80;;;;;;4980676;28;20050;-55
2022/09/26 02:59:50;;;;;;;3.47;1.55;;;13.60;57.80;;;;;;4983507;28;20061;-57
2022/09/26 03:02:22;;;;;;;5.45;1.40;;;13.60;57.80;;;;;;4980989;28;20486;-57
2022/09/26 03:04:53;;;;;;;2.53;0.90;;;13.60;57.90;;;;;;4982936;28;20098;-58
2022/09/26 03:07:27;;;;;;;4.28;1.77;;;13.70;57.90;;;;;;4981311;28;20061;-55
2022/09/26 03:09:56;;;;;;;3.78;1.90;;;13.70;58.00;;;;;;4983487;28;20486;-57
2022/09/26 03:12:26;;;;;;;2.70;1.90;;;13.70;57.90;;;;;;4983262;28;20046;-56
2022/09/26 03:14:54;;;;;;;2.47;1.50;;;13.70;57.90;;;;;;4981678;28;20444;-54
2022/09/26 03:17:24;;;;;;;6.07;1.92;;;13.70;57.90;;;;;;4978738;28;20054;-57
2022/09/26 03:19:57;;;;;;;3.53;1.83;;;13.70;57.90;;;;;;4981790;28;20065;-57
2022/09/26 03:22:26;;;;;;;5.57;2.00;;;13.80;58.00;;;;;;4981839;28;20050;-58
2022/09/26 03:24:53;;;;;;;6.20;2.20;;;13.80;58.00;;;;;;4984380;28;20054;-58
2022/09/26 03:27:21;;;;;;;5.32;2.28;;;13.80;58.00;;;;;;4980297;28;20521;-55
2022/09/26 03:29:48;;;;;;;8.63;2.50;;;13.80;58.00;;;;;;4983484;28;20526;-52
2022/09/26 03:32:15;;;;;;;4.05;2.20;;;13.80;58.00;;;;;;4981724;28;20065;-58
2022/09/26 03:34:42;;;;;;;5.38;2.00;;;13.90;58.00;;;;;;4982603;28;20057;-55
2022/09/26 03:37:10;;;;;;;5.70;1.92;;;13.80;58.00;;;;;;4979097;28;20054;-56
2022/09/26 03:39:38;;;;;;;6.22;2.38;;;13.90;58.00;;;;;;4983594;28;20054;-56
2022/09/26 03:42:06;;;;;;;3.45;1.85;;;13.90;57.90;;;;;;4982764;28;20058;-57
2022/09/26 03:44:33;;;;;;;5.93;2.20;;;13.90;57.90;;;;;;4983560;28;20138;-57
2022/09/26 03:47:00;;;;;;;7.13;2.15;;;13.90;57.90;;;;;;4979722;28;20066;-58
2022/09/26 03:49:28;;;;;;;3.78;2.22;;;14.00;57.90;;;;;;4981457;28;20061;-58
2022/09/26 03:51:55;;;;;;;9.40;2.40;;;14.00;57.80;;;;;;4982126;28;20058;-54
2022/09/26 03:54:22;;;;;;;5.63;2.50;;;14.00;57.70;;;;;;4982726;28;20406;-55
2022/09/26 03:56:51;;;;;;;3.55;2.25;;;14.00;57.70;;;;;;4977849;28;20077;-56
2022/09/26 03:59:18;;;;;;;5.03;2.58;;;14.00;57.60;;;;;;4981696;28;20562;-57
2022/09/26 04:01:45;;;;;;;4.85;2.75;;;14.00;57.50;;;;;;4980654;28;20054;-58
2022/09/26 04:04:15;;;;;;;5.78;2.78;;;14.00;57.50;;;;;;4982590;28;20058;-58
2022/09/26 04:06:43;;;;;;;5.10;2.70;;;14.00;57.40;;;;;;4977814;28;20057;-58
2022/09/26 04:09:11;;;;;;;4.25;2.50;;;14.00;57.40;;;;;;4976819;28;20414;-57
2022/09/26 04:11:38;;;;;;;6.60;3.00;;;14.00;57.30;;;;;;4981883;28;20081;-55
2022/09/26 04:14:09;;;;;;;6.82;2.90;;;14.00;57.30;;;;;;4980564;28;20414;-55
2022/09/26 04:16:37;;;;;;;6.53;3.05;;;14.00;57.20;;;;;;4971446;28;20521;-53
2022/09/26 04:19:04;;;;;;;7.53;3.05;;;14.00;57.10;;;;;;4978975;28;20057;-57
2022/09/26 04:21:34;;;;;;;8.77;3.40;;;14.00;57.10;;;;;;4983024;28;20054;-58
2022/09/26 04:24:02;;;;;;;6.13;3.30;;;14.00;57.00;;;;;;4978212;28;20053;-57
2022/09/26 04:26:29;;;;;;;6.78;3.00;;;14.00;57.00;;;;;;4981679;28;20065;-57
2022/09/26 04:28:57;;;;;;;5.80;3.22;;;14.00;56.90;;;;;;4979357;28;20063;-58
2022/09/26 04:31:27;;;;;;;8.15;3.97;;;14.00;56.90;;;;;;4978411;28;20053;-57
2022/09/26 04:33:55;;;;;;;7.88;3.20;;;13.90;56.90;;;;;;4981339;28;20046;-58
2022/09/26 04:36:22;;;;;;;7.40;3.70;;;13.90;56.90;;;;;;4981058;28;20486;-57
2022/09/26 04:38:49;;;;;;;5.32;3.53;;;13.90;56.90;;;;;;4981215;28;20055;-57
2022/09/26 04:41:19;;;;;;;8.38;3.58;;;14.00;57.00;;;;;;4980543;28;20058;-57
2022/09/26 04:43:47;;;;;;;5.97;3.42;;;13.90;57.00;;;;;;4982068;28;20054;-57
2022/09/26 04:46:16;;;;;;;6.20;3.75;;;13.90;57.00;;;;;;4977563;28;20498;-56
2022/09/26 04:48:45;;;;;;;7.75;3.60;;;13.90;57.00;;;;;;4979971;28;20057;-57
2022/09/26 04:51:14;;;;;;;6.55;3.90;;;13.90;57.00;;;;;;4978700;28;20050;-58
2022/09/26 04:53:41;;;;;;;7.05;3.97;;;13.80;57.00;;;;;;4982419;28;20065;-58
2022/09/26 04:56:11;;;;;;;11.35;5.55;;;13.80;57.00;;;;;;4982168;28;20061;-57
2022/09/26 04:58:40;;;;;;;7.45;4.20;;;13.80;57.00;;;;;;4981429;28;20066;-57
2022/09/26 05:01:09;;;;;;;7.72;3.95;;;13.80;57.10;;;;;;4979818;28;20502;-58
2022/09/26 05:03:37;;;;;;;6.75;4.15;;;13.80;57.10;;;;;;4979717;28;21217;-57
2022/09/26 05:06:07;;;;;;;12.30;4.63;;;13.80;57.10;;;;;;4981489;28;20058;-58
2022/09/26 05:08:35;;;;;;;7.07;3.80;;;13.70;57.10;;;;;;4980336;28;20058;-56
2022/09/26 05:11:03;;;;;;;7.68;4.13;;;13.80;57.20;;;;;;4979384;28;20058;-58
2022/09/26 05:13:31;;;;;;;6.22;3.92;;;13.70;57.10;;;;;;4972837;28;20061;-55
2022/09/26 05:15:59;;;;;;;8.48;4.68;;;13.70;57.20;;;;;;4977113;28;20058;-57
2022/09/26 05:18:26;;;;;;;8.25;4.28;;;13.70;57.20;;;;;;4975721;28;20046;-58
2022/09/26 05:20:55;;;;;;;8.65;4.47;;;13.70;57.30;;;;;;4977478;28;20050;-52
2022/09/26 05:26:19;;;;;;;6.07;4.00;;;13.70;57.40;;;;;;4985083;28;20069;-53
2022/09/26 05:28:49;;;;;;;10.95;5.47;;;13.70;57.40;;;;;;4977295;28;20054;-56
2022/09/26 05:31:17;;;;;;;7.97;4.65;;;13.70;57.50;;;;;;4980379;28;20502;-57
2022/09/26 05:33:45;;;;;;;8.60;3.90;;;13.70;57.50;;;;;;4982145;28;20062;-58
2022/09/26 05:36:13;;;;;;;6.15;4.28;;;13.70;57.50;;;;;;4981803;28;20061;-58
2022/09/26 05:38:41;;;;;;;9.02;4.90;;;13.70;57.50;;;;;;4980971;28;20050;-58
2022/09/26 05:41:07;;;;;;;6.07;3.83;;;13.70;57.50;;;;;;4981899;28;20050;-56
2022/09/26 05:43:35;;;;;;;8.93;4.32;;;13.70;57.50;;;;;;4984446;28;20053;-55
2022/09/26 05:46:04;;;;;;;7.40;4.38;;;13.70;57.50;;;;;;4982382;28;20066;-54
2022/09/26 05:48:32;;;;;;;9.02;4.70;;;13.70;57.50;;;;;;4984561;28;20063;-58
2022/09/26 05:51:04;;;;;;;7.40;4.53;;;13.70;57.50;;;;;;4985159;28;20065;-57
2022/09/26 05:53:32;;;;;;;6.63;4.07;;;13.70;57.90;;;;;;4978560;28;20046;-58
2022/09/26 05:56:01;;;;;;;7.80;4.05;;;13.70;57.40;;;;;;4980312;28;20050;-57
2022/09/26 05:58:31;;;;;;;8.05;4.30;;;13.70;57.40;;;;;;4982604;28;20065;-57
2022/09/26 06:01:02;;;;;;;8.73;4.97;;;13.70;57.40;;;;;;4978166;28;20058;-56
2022/09/26 06:03:33;;;;;;;6.35;4.47;;;13.70;57.40;;;;;;4980408;28;20059;-57
2022/09/26 06:06:05;;;;;;;7.60;4.30;;;13.70;57.40;;;;;;4983504;28;20077;-53
2022/09/26 06:08:33;;;;;;;7.65;3.78;;;13.70;57.50;;;;;;4985528;28;20054;-58
2022/09/26 06:11:04;;;;;;;4.32;3.10;;;13.80;57.60;;;;;;4976839;28;20521;-53
2022/09/26 06:13:32;;;;;;;5.18;3.50;;;13.80;57.60;;;;;;4982275;28;20057;-57
2022/09/26 06:16:02;;;;;;;5.03;3.45;;;13.80;57.70;;;;;;4981658;28;20415;-58
2022/09/26 06:18:29;;;;;;;5.97;3.42;;;13.80;57.70;;;;;;4983941;28;20055;-58
2022/09/26 06:20:56;;;;;;;8.07;3.42;;;13.80;57.60;;;;;;4982971;28;20053;-57
2022/09/26 06:23:24;;;;;;;5.30;3.10;;;13.80;57.70;;;;;;4983584;28;20058;-57
2022/09/26 06:25:51;;;;;;;8.55;3.70;;;13.80;57.70;;;;;;4981707;28;20517;-58
2022/09/26 06:28:19;;;;;;;5.15;3.20;;;13.90;57.70;;;;;;4982835;28;20050;-56
2022/09/26 06:30:47;;;;;;;6.68;3.33;;;13.90;57.80;;;;;;4982879;28;20058;-56
2022/09/26 06:33:14;;;;;;;6.22;3.28;;;13.90;57.80;;;;;;4983446;28;20054;-56
2022/09/26 06:35:41;;;;;;;6.00;3.03;;;13.90;57.80;;;;;;4982729;28;20956;-58
2022/09/26 06:38:08;;;;;;;4.18;2.88;;;14.00;57.80;;;;;;4984832;28;20046;-57
2022/09/26 06:40:36;;;;;;;6.00;3.00;;;14.00;57.80;;;;;;4983354;28;20058;-57
2022/09/26 06:43:03;;;;;;;4.32;2.80;;;14.00;57.90;;;;;;4980814;28;20054;-58
2022/09/26 06:45:32;;;;;;;4.03;2.40;;;14.00;57.90;;;;;;4978813;28;20509;-57
2022/09/26 06:48:01;;;;;;;3.67;2.55;;;14.00;57.90;;;;;;4981195;28;20050;-57
2022/09/26 06:50:28;;;;;;;6.43;2.92;;;14.10;58.40;;;;;;4980491;28;20047;-57
2022/09/26 06:52:55;;;;;;;5.10;2.95;;;14.10;57.80;;;;;;4982149;28;20055;-57
2022/09/26 06:55:22;;;;;;;64.75;27.20;;;14.10;57.70;;;;;;4982284;28;20854;-57
2022/09/26 06:57:50;;;;;;;21.17;9.13;;;14.20;58.20;;;;;;4983574;28;20058;-57
2022/09/26 07:00:17;;;;;;;14.60;4.72;;;14.20;57.80;;;;;;4980884;28;20088;-54
2022/09/26 07:02:53;;;;;;;6.45;3.15;;;14.20;57.70;;;;;;4983866;28;20050;-57
2022/09/26 07:05:21;;;;;;;3.70;2.70;;;14.20;57.80;;;;;;4980435;28;20057;-58
2022/09/26 07:07:48;;;;;;;3.75;2.08;;;14.20;57.70;;;;;;4983253;28;20050;-57
2022/09/26 07:10:18;;;;;;;5.07;3.13;;;14.30;57.70;;;;;;4983222;28;20054;-53
2022/09/26 07:12:46;;;;;;;5.25;2.20;;;14.30;57.70;;;;;;4982560;28;20065;-57
2022/09/26 07:15:15;;;;;;;4.70;2.90;;;14.30;57.60;;;;;;4981797;28;20058;-57
2022/09/26 07:17:43;;;;;;;6.45;2.63;;;14.30;57.60;;;;;;4981931;28;21021;-58
2022/09/26 07:20:13;;;;;;;5.10;2.28;;;14.30;57.60;;;;;;4980951;28;20515;-53
2022/09/26 07:22:42;;;;;;;6.90;2.80;;;14.30;57.60;;;;;;4983597;28;20054;-58
2022/09/26 07:25:10;;;;;;;6.55;2.80;;;14.30;57.60;;;;;;4980568;28;20415;-58
2022/09/26 07:27:38;;;;;;;4.38;2.70;;;14.40;57.60;;;;;;4981054;28;20061;-57
2022/09/26 07:30:07;;;;;;;3.33;2.38;;;14.30;57.60;;;;;;4976507;28;20050;-53
2022/09/26 07:32:36;;;;;;;3.65;2.13;;;14.40;57.60;;;;;;4982197;28;20050;-54
2022/09/26 07:35:03;;;;;;;3.47;1.70;;;14.40;57.60;;;;;;4981120;28;20065;-59
2022/09/26 07:37:33;;;;;;;3.17;2.00;;;14.50;57.60;;;;;;4981640;28;20475;-57
2022/09/26 07:40:00;;;;;;;5.03;2.17;;;14.50;57.60;;;;;;4982450;28;20490;-59
2022/09/26 07:42:28;;;;;;;6.32;2.40;;;14.50;57.60;;;;;;4979603;28;20054;-58
2022/09/26 07:44:55;;;;;;;3.47;1.50;;;14.50;57.70;;;;;;4981913;28;20084;-55
2022/09/26 07:50:12;;;;;;;3.15;1.95;;;14.60;57.80;;;;;;4988473;28;20053;-57
2022/09/26 07:52:42;;;;;;;3.75;1.83;;;14.70;57.80;;;;;;4980203;28;20510;-58
2022/09/26 07:55:12;;;;;;;9.98;2.50;;;14.70;57.70;;;;;;4974240;28;20058;-56
2022/09/26 07:57:39;;;;;;;2.80;1.58;;;14.80;57.80;;;;;;4980575;28;20062;-58
2022/09/26 08:00:11;;;;;;;5.40;1.70;;;14.80;57.60;;;;;;4980149;28;20061;-55
2022/09/26 08:02:41;;;;;;;4.75;1.77;;;14.90;57.40;;;;;;4981692;28;20062;-58
2022/09/26 08:05:10;;;;;;;5.30;1.73;;;14.90;57.30;;;;;;4978779;28;20414;-57
2022/09/26 08:07:37;;;;;;;3.83;1.70;;;14.90;57.10;;;;;;4979339;28;20126;-55
2022/09/26 08:10:07;;;;;;;4.55;1.52;;;15.00;56.90;;;;;;4976468;28;20050;-57
2022/09/26 08:12:36;;;;;;;14.05;1.50;;;15.00;56.60;;;;;;4976468;28;20064;-58
2022/09/26 08:15:05;;;;;;;5.72;1.50;;;15.10;56.60;;;;;;4977966;28;20525;-53
2022/09/26 08:17:32;;;;;;;3.40;1.40;;;15.10;56.10;;;;;;4978916;28;20065;-58
2022/09/26 08:19:59;;;;;;;4.95;1.40;;;15.10;55.80;;;;;;4979170;28;20061;-57
2022/09/26 08:22:27;;;;;;;2.40;1.30;;;15.20;55.60;;;;;;4978055;28;20054;-57
2022/09/26 08:24:57;;;;;;;1.98;1.38;;;15.20;55.50;;;;;;4982835;28;21221;-55
2022/09/26 08:27:25;;;;;;;9.88;1.67;;;15.20;55.50;;;;;;4979472;28;20058;-57
2022/09/26 08:29:53;;;;;;;3.22;1.38;;;15.30;55.50;;;;;;4982165;28;20069;-58
2022/09/26 08:32:20;;;;;;;7.90;1.55;;;15.30;55.50;;;;;;4983172;28;20062;-55
2022/09/26 08:34:50;;;;;;;4.10;1.48;;;15.30;55.40;;;;;;4982587;28;20046;-55
2022/09/26 08:37:19;;;;;;;2.53;1.50;;;15.30;55.30;;;;;;4976226;28;20054;-58
2022/09/26 08:39:47;;;;;;;3.55;1.33;;;15.30;55.10;;;;;;4982399;28;20054;-57
2022/09/26 08:42:29;;;;;;;2.85;1.10;;;15.40;54.90;;;;;;4980302;28;21952;-56
2022/09/26 08:46:28;;;;;;;4.65;1.40;;;15.40;54.90;;;;;;4979027;28;20055;-59
2022/09/26 08:48:18;;;;;;;5.95;1.27;;;15.40;54.90;;;;;;4984405;28;20066;-57
2022/09/26 08:50:49;;;;;;;4.40;1.45;;;15.50;54.40;;;;;;4978530;28;20058;-57
2022/09/26 08:53:21;;;;;;;3.03;1.20;;;15.50;54.50;;;;;;4976264;28;20407;-59
2022/09/26 08:55:49;;;;;;;4.53;1.75;;;15.60;54.60;;;;;;4979917;28;20055;-57
2022/09/26 08:58:21;;;;;;;11.82;1.90;;;15.60;54.40;;;;;;4981542;28;20379;-57
2022/09/26 09:00:52;;;;;;;2.83;1.15;;;15.60;54.10;;;;;;4979900;28;20062;-59
2022/09/26 09:03:27;;;;;;;2.75;1.08;;;15.60;54.10;;;;;;4981548;28;20061;-56
2022/09/26 09:05:59;;;;;;;2.10;1.30;;;15.60;54.20;;;;;;4976539;28;20418;-59
2022/09/26 09:08:35;;;;;;;4.05;1.23;;;15.60;54.10;;;;;;4977283;28;20062;-58
2022/09/26 09:11:15;;;;;;;3.08;1.23;;;15.60;54.00;;;;;;4979975;28;20414;-57
2022/09/26 09:14:01;;;;;;;4.82;1.20;;;15.60;53.90;;;;;;4978672;28;20585;-58
2022/09/26 09:16:44;;;;;;;3.83;1.30;;;15.60;53.80;;;;;;4978438;28;20517;-57
2022/09/26 09:19:19;;;;;;;6.07;1.27;;;15.60;54.00;;;;;;4984636;28;20061;-57
2022/09/26 09:22:09;;;;;;;4.22;1.00;;;15.60;54.00;;;;;;4982943;28;20058;-58
2022/09/26 09:24:50;;;;;;;2.97;1.20;;;15.60;54.00;;;;;;4984247;28;20061;-58
2022/09/26 09:27:27;;;;;;;2.85;1.15;;;15.60;53.90;;;;;;4980335;28;20050;-57
2022/09/26 09:30:14;;;;;;;4.57;1.08;;;15.70;53.80;;;;;;4982752;28;20058;-57
2022/09/26 09:32:48;;;;;;;4.40;1.35;;;15.60;53.70;;;;;;4988958;28;20065;-56
2022/09/26 09:35:18;;;;;;;4.50;1.77;;;15.60;53.80;;;;;;4986325;28;20700;-56
2022/09/26 09:37:49;;;;;;;1.80;0.90;;;15.60;53.80;;;;;;4988267;28;20399;-58
2022/09/26 09:40:25;;;;;;;3.13;1.20;;;15.70;54.00;;;;;;4986708;28;20054;-57
2022/09/26 09:42:56;;;;;;;2.83;1.08;;;15.60;54.20;;;;;;4988092;28;20061;-58
2022/09/26 09:45:30;;;;;;;1.70;1.13;;;15.70;54.40;;;;;;4980105;28;20050;-57
2022/09/26 09:47:57;;;;;;;5.83;1.43;;;15.70;54.50;;;;;;4985654;28;20054;-55
2022/09/26 09:50:38;;;;;;;3.50;1.45;;;15.70;54.50;;;;;;4984021;28;20054;-57
2022/09/26 09:53:18;;;;;;;2.35;1.30;;;15.70;54.60;;;;;;4982549;28;20050;-55
2022/09/26 09:55:57;;;;;;;3.15;1.30;;;15.70;54.70;;;;;;4983856;28;20058;-57
2022/09/26 09:58:38;;;;;;;4.93;1.48;;;15.70;54.70;;;;;;4984416;28;20058;-58
2022/09/26 10:01:11;;;;;;;2.55;1.30;;;15.70;54.90;;;;;;4984397;28;20046;-57
2022/09/26 10:03:46;;;;;;;1.92;1.10;;;15.70;55.10;;;;;;4983174;28;20062;-57
2022/09/26 10:06:13;;;;;;;3.50;1.30;;;15.70;55.40;;;;;;4982530;28;20065;-57
2022/09/26 10:08:41;;;;;;;3.10;1.40;;;15.70;55.50;;;;;;4981811;28;20582;-57
2022/09/26 10:11:22;;;;;;;6.57;1.60;;;15.60;55.60;;;;;;4986224;28;20424;-57
2022/09/26 10:13:52;;;;;;;2.65;1.20;;;15.60;55.90;;;;;;4984138;28;20085;-56
2022/09/26 10:16:20;;;;;;;2.53;1.33;;;15.60;55.90;;;;;;4980990;28;20057;-57
2022/09/26 10:18:59;;;;;;;4.35;1.55;;;15.70;56.10;;;;;;4981128;28;20069;-57
2022/09/26 10:21:31;;;;;;;14.05;6.63;;;15.60;56.30;;;;;;4979389;28;20053;-56
2022/09/26 10:24:00;;;;;;;8.57;4.10;;;15.60;56.30;;;;;;4984838;28;20061;-58
2022/09/26 10:26:33;;;;;;;4.97;2.08;;;15.60;56.30;;;;;;4982244;28;20057;-57
2022/09/26 10:29:07;;;;;;;2.22;1.55;;;15.60;56.40;;;;;;4979809;28;20046;-58
2022/09/26 10:31:39;;;;;;;4.97;1.40;;;15.60;56.60;;;;;;4982156;28;20413;-58
2022/09/26 10:34:20;;;;;;;5.38;2.10;;;15.60;56.70;;;;;;4983339;28;20486;-54
2022/09/26 10:36:48;;;;;;;4.30;1.85;;;15.60;56.60;;;;;;4983033;28;20058;-58
2022/09/26 10:42:13;;;;;;;1.63;1.40;;;15.60;56.70;;;;;;4983017;28;20057;-58
2022/09/26 10:44:41;;;;;;;1.73;1.17;;;15.60;56.70;;;;;;4982351;28;20054;-58
2022/09/26 10:47:14;;;;;;;2.80;1.27;;;15.50;56.80;;;;;;4982351;28;20054;-58
2022/09/26 10:49:50;;;;;;;5.18;1.35;;;15.50;57.00;;;;;;4983614;28;20062;-58
2022/09/26 10:52:22;;;;;;;4.38;1.25;;;15.50;57.00;;;;;;4984246;28;20054;-57
2022/09/26 10:54:58;;;;;;;3.55;1.40;;;15.50;57.00;;;;;;4983574;28;20071;-56
2022/09/26 10:57:29;;;;;;;3.13;1.40;;;15.50;57.10;;;;;;4983988;28;20574;-59
2022/09/26 10:59:59;;;;;;;2.08;1.00;;;15.50;57.10;;;;;;4984741;28;20417;-58
2022/09/26 11:02:28;;;;;;;3.90;1.27;;;15.50;57.10;;;;;;4981295;28;20065;-57
2022/09/26 11:07:47;;;;;;;4.10;0.98;;;15.50;57.40;;;;;;4987608;28;20469;-57
2022/09/26 11:10:22;;;;;;;2.60;1.30;;;15.50;57.50;;;;;;4981768;28;20065;-58
2022/09/26 11:12:59;;;;;;;2.25;1.10;;;15.50;57.60;;;;;;4983008;28;20058;-59
2022/09/26 11:15:27;;;;;;;3.28;1.20;;;15.40;57.60;;;;;;4975994;28;20057;-53
2022/09/26 11:17:55;;;;;;;2.25;1.00;;;15.50;57.60;;;;;;4982939;28;20062;-54
2022/09/26 11:20:35;;;;;;;2.53;1.25;;;15.50;57.70;;;;;;4981551;28;20411;-58
2022/09/26 11:23:15;;;;;;;2.65;1.48;;;15.50;58.00;;;;;;4982664;28;20065;-55
2022/09/26 11:25:53;;;;;;;2.78;1.45;;;15.50;58.10;;;;;;4982085;28;20062;-55
2022/09/26 11:28:29;;;;;;;2.60;1.15;;;15.50;58.10;;;;;;4983797;28;20053;-54
2022/09/26 11:31:04;;;;;;;2.65;1.20;;;15.50;58.10;;;;;;4981941;28;20058;-58
2022/09/26 11:33:33;;;;;;;3.10;1.55;;;15.50;58.20;;;;;;4984199;28;20069;-58
2022/09/26 11:36:16;;;;;;;3.00;1.38;;;15.50;58.20;;;;;;4982900;28;20352;-57
2022/09/26 11:38:46;;;;;;;1.63;1.40;;;15.50;58.30;;;;;;4983693;28;20498;-58
2022/09/26 11:41:37;;;;;;;4.32;1.60;;;15.50;58.30;;;;;;4965392;28;20054;-57
2022/09/26 11:44:20;;;;;;;2.00;1.38;;;15.60;58.40;;;;;;4983942;28;20553;-57
2022/09/26 11:46:58;;;;;;;1.92;1.40;;;15.60;58.40;;;;;;4980981;28;20057;-58
2022/09/26 11:49:57;;;;;;;5.75;1.70;;;15.60;58.40;;;;;;4981060;28;20065;-57
2022/09/26 11:52:41;;;;;;;8.32;1.38;;;15.60;58.60;;;;;;4966170;28;20892;-58
2022/09/26 11:55:18;;;;;;;3.85;1.70;;;15.60;58.70;;;;;;4980389;28;20490;-57
2022/09/26 11:57:56;;;;;;;3.35;1.40;;;15.70;58.80;;;;;;4980929;28;20050;-58
2022/09/26 12:00:26;;;;;;;1.60;1.25;;;15.70;58.70;;;;;;4980687;28;20061;-51
2022/09/26 12:03:18;;;;;;;3.90;1.88;;;15.70;58.60;;;;;;4982652;28;20061;-57
2022/09/26 12:05:53;;;;;;;3.65;1.10;;;15.70;58.80;;;;;;4980428;28;20054;-59
2022/09/26 12:08:43;;;;;;;3.03;1.85;;;15.70;58.50;;;;;;4982571;28;20054;-59
2022/09/26 12:11:21;;;;;;;2.45;1.10;;;15.70;58.40;;;;;;4981238;28;21277;-59
2022/09/26 12:13:54;;;;;;;3.42;1.20;;;15.80;58.50;;;;;;4981343;28;20419;-59
2022/09/26 12:16:28;;;;;;;3.88;1.17;;;15.80;58.60;;;;;;4982202;28;20399;-55
2022/09/26 12:19:04;;;;;;;3.92;1.20;;;15.80;58.50;;;;;;4982326;28;20074;-58
2022/09/26 12:22:27;;;;;;;3.17;1.30;;;15.80;58.50;;;;;;4981526;28;20054;-56
2022/09/26 12:24:40;;;;;;;2.67;1.08;;;15.80;58.30;;;;;;4978133;28;20057;-59
2022/09/26 12:27:14;;;;;;;2.58;1.10;;;15.80;58.30;;;;;;4979365;28;20053;-56
2022/09/26 12:29:49;;;;;;;3.25;1.02;;;15.80;58.30;;;;;;4982575;28;20057;-59
2022/09/26 12:32:28;;;;;;;2.63;0.85;;;15.80;58.30;;;;;;4982282;28;20073;-59
2022/09/26 12:35:19;;;;;;;1.95;0.90;;;15.80;58.30;;;;;;4977788;28;20058;-56
2022/09/26 12:38:12;;;;;;;1.35;0.90;;;15.80;58.10;;;;;;4981751;28;20065;-59
2022/09/26 12:40:52;;;;;;;4.57;1.17;;;15.90;58.00;;;;;;4979921;28;20406;-58
2022/09/26 12:43:46;;;;;;;3.80;1.55;;;15.90;57.90;;;;;;4981257;28;20065;-58
2022/09/26 12:46:39;;;;;;;0.90;0.65;;;15.90;57.70;;;;;;4978369;28;20058;-52
2022/09/26 12:49:38;;;;;;;3.55;0.95;;;15.90;57.70;;;;;;4982209;28;20050;-59
2022/09/26 12:52:18;;;;;;;2.95;0.93;;;15.90;57.70;;;;;;4978530;28;20069;-57
2022/09/26 12:55:07;;;;;;;2.78;1.00;;;15.90;57.60;;;;;;4983433;28;20062;-55
2022/09/26 12:57:44;;;;;;;1.77;0.80;;;15.90;57.70;;;;;;4983704;28;20046;-58
2022/09/26 13:00:19;;;;;;;4.20;0.98;;;16.00;57.80;;;;;;4981727;28;20057;-57
2022/09/26 13:03:20;;;;;;;1.83;0.85;;;16.00;57.60;;;;;;4985038;28;20062;-57
2022/09/26 13:06:27;;;;;;;7.50;1.20;;;16.00;57.40;;;;;;4980819;28;20054;-57
2022/09/26 13:09:03;;;;;;;0.90;0.68;;;16.00;57.40;;;;;;4907443;29;20440;-58
2022/09/26 13:11:41;;;;;;;5.57;1.20;;;16.10;57.30;;;;;;4907429;29;20056;-57
2022/09/26 13:14:26;;;;;;;4.82;0.80;;;16.10;57.10;;;;;;4949480;28;20517;-58
2022/09/26 13:17:08;;;;;;;9.32;3.75;;;16.10;57.00;;;;;;4975501;28;20050;-56
2022/09/26 13:19:40;;;;;;;6.55;1.45;;;16.10;56.90;;;;;;4980988;28;20589;-55
2022/09/26 13:22:20;;;;;;;3.33;1.00;;;16.20;56.70;;;;;;4978867;28;20116;-57
2022/09/26 13:24:54;;;;;;;4.22;0.68;;;16.20;56.50;;;;;;4983478;28;20066;-58
2022/09/26 13:27:28;;;;;;;4.32;1.23;;;16.20;56.30;;;;;;4981259;28;20859;-58